sensor_id;sensor_type;location;lat;lon;timestamp;P1;durP1;ratioP1;P2;durP2;ratioP2
30010;SDS011;16851;53.564;8.112;2023-05-10T00:04:30;15.57;;;13.98;;
30010;SDS011;16851;53.564;8.112;2023-05-10T00:09:34;16.58;;;14.27;;
30010;SDS011;16851;53.564;8.112;2023-05-10T00:14:38;15.52;;;13.95;;
30010;SDS011;16851;53.564;8.112;2023-05-10T00:19:40;15.43;;;13.80;;
30010;SDS011;16851;53.564;8.112;2023-05-10T00:24:41;15.18;;;13.57;;
30010;SDS011;16851;53.564;8.112;2023-05-10T00:29:43;13.77;;;12.38;;
30010;SDS011;16851;53.564;8.112;2023-05-10T00:34:45;16.63;;;13.98;;
30010;SDS011;16851;53.564;8.112;2023-05-10T00:39:47;16.02;;;14.32;;
30010;SDS011;16851;53.564;8.112;2023-05-10T00:44:48;16.17;;;14.57;;
30010;SDS011;16851;53.564;8.112;2023-05-10T00:49:50;17.30;;;15.00;;
30010;SDS011;16851;53.564;8.112;2023-05-10T00:54:53;15.82;;;12.77;;
30010;SDS011;16851;53.564;8.112;2023-05-10T00:59:57;14.95;;;13.35;;
30010;SDS011;16851;53.564;8.112;2023-05-10T01:05:02;20.75;;;15.68;;
30010;SDS011;16851;53.564;8.112;2023-05-10T01:10:08;18.02;;;16.10;;
30010;SDS011;16851;53.564;8.112;2023-05-10T01:15:10;16.83;;;14.88;;
30010;SDS011;16851;53.564;8.112;2023-05-10T01:20:12;17.65;;;14.93;;
30010;SDS011;16851;53.564;8.112;2023-05-10T01:46:33;28.63;;;21.67;;
30010;SDS011;16851;53.564;8.112;2023-05-10T01:51:47;25.85;;;20.92;;
30010;SDS011;16851;53.564;8.112;2023-05-10T01:56:55;26.92;;;22.65;;
30010;SDS011;16851;53.564;8.112;2023-05-10T02:02:05;31.02;;;25.35;;
30010;SDS011;16851;53.564;8.112;2023-05-10T02:07:07;26.90;;;22.50;;
30010;SDS011;16851;53.564;8.112;2023-05-10T02:12:15;24.25;;;21.25;;
30010;SDS011;16851;53.564;8.112;2023-05-10T02:17:19;24.52;;;20.67;;
30010;SDS011;16851;53.564;8.112;2023-05-10T02:22:23;25.92;;;22.48;;
30010;SDS011;16851;53.564;8.112;2023-05-10T02:27:30;31.13;;;25.33;;
30010;SDS011;16851;53.564;8.112;2023-05-10T02:32:32;30.30;;;24.65;;
30010;SDS011;16851;53.564;8.112;2023-05-10T02:37:38;26.52;;;22.67;;
30010;SDS011;16851;53.564;8.112;2023-05-10T02:42:41;24.95;;;21.00;;
30010;SDS011;16851;53.564;8.112;2023-05-10T02:47:46;29.48;;;22.15;;
30010;SDS011;16851;53.564;8.112;2023-05-10T02:52:51;30.83;;;23.23;;
30010;SDS011;16851;53.564;8.112;2023-05-10T02:57:56;27.63;;;21.30;;
30010;SDS011;16851;53.564;8.112;2023-05-10T03:03:02;24.00;;;19.92;;
30010;SDS011;16851;53.564;8.112;2023-05-10T03:08:06;22.58;;;17.30;;
30010;SDS011;16851;53.564;8.112;2023-05-10T03:13:16;21.13;;;16.80;;
30010;SDS011;16851;53.564;8.112;2023-05-10T03:18:26;14.13;;;12.60;;
30010;SDS011;16851;53.564;8.112;2023-05-10T03:24:13;22.58;;;17.27;;
30010;SDS011;16851;53.564;8.112;2023-05-10T03:29:14;16.60;;;14.10;;
30010;SDS011;16851;53.564;8.112;2023-05-10T03:34:22;15.10;;;13.32;;
30010;SDS011;16851;53.564;8.112;2023-05-10T03:39:27;14.82;;;12.32;;
30010;SDS011;16851;53.564;8.112;2023-05-10T03:44:32;12.55;;;11.20;;
30010;SDS011;16851;53.564;8.112;2023-05-10T03:49:34;11.88;;;10.65;;
30010;SDS011;16851;53.564;8.112;2023-05-10T03:54:42;8.73;;;7.80;;
30010;SDS011;16851;53.564;8.112;2023-05-10T03:59:43;6.53;;;5.45;;
30010;SDS011;16851;53.564;8.112;2023-05-10T04:04:46;8.63;;;5.93;;
30010;SDS011;16851;53.564;8.112;2023-05-10T04:09:51;7.63;;;6.82;;
30010;SDS011;16851;53.564;8.112;2023-05-10T04:14:58;7.85;;;6.60;;
30010;SDS011;16851;53.564;8.112;2023-05-10T04:20:02;6.70;;;6.00;;
30010;SDS011;16851;53.564;8.112;2023-05-10T04:25:05;7.72;;;6.93;;
30010;SDS011;16851;53.564;8.112;2023-05-10T04:30:09;8.48;;;7.47;;
30010;SDS011;16851;53.564;8.112;2023-05-10T04:35:11;8.48;;;7.55;;
30010;SDS011;16851;53.564;8.112;2023-05-10T04:40:16;10.70;;;8.48;;
30010;SDS011;16851;53.564;8.112;2023-05-10T04:45:21;10.65;;;9.05;;
30010;SDS011;16851;53.564;8.112;2023-05-10T04:50:27;11.48;;;9.65;;
30010;SDS011;16851;53.564;8.112;2023-05-10T04:55:29;11.68;;;10.57;;
30010;SDS011;16851;53.564;8.112;2023-05-10T05:00:31;11.10;;;9.57;;
30010;SDS011;16851;53.564;8.112;2023-05-10T05:05:36;11.25;;;9.70;;
30010;SDS011;16851;53.564;8.112;2023-05-10T05:10:40;13.57;;;10.85;;
30010;SDS011;16851;53.564;8.112;2023-05-10T05:15:42;14.07;;;11.87;;
30010;SDS011;16851;53.564;8.112;2023-05-10T05:20:46;15.30;;;11.93;;
30010;SDS011;16851;53.564;8.112;2023-05-10T05:25:51;12.40;;;11.07;;
30010;SDS011;16851;53.564;8.112;2023-05-10T05:30:53;10.13;;;8.57;;
30010;SDS011;16851;53.564;8.112;2023-05-10T05:35:55;9.15;;;7.57;;
30010;SDS011;16851;53.564;8.112;2023-05-10T05:40:59;6.80;;;5.50;;
30010;SDS011;16851;53.564;8.112;2023-05-10T05:46:01;8.43;;;6.45;;
30010;SDS011;16851;53.564;8.112;2023-05-10T05:51:05;10.90;;;7.70;;
30010;SDS011;16851;53.564;8.112;2023-05-10T05:56:07;10.27;;;8.57;;
30010;SDS011;16851;53.564;8.112;2023-05-10T06:01:13;11.40;;;9.25;;
30010;SDS011;16851;53.564;8.112;2023-05-10T06:06:15;10.50;;;9.35;;
30010;SDS011;16851;53.564;8.112;2023-05-10T06:11:19;12.07;;;9.57;;
30010;SDS011;16851;53.564;8.112;2023-05-10T06:16:26;10.82;;;9.15;;
30010;SDS011;16851;53.564;8.112;2023-05-10T06:21:28;10.63;;;9.52;;
30010;SDS011;16851;53.564;8.112;2023-05-10T06:26:30;10.15;;;9.15;;
30010;SDS011;16851;53.564;8.112;2023-05-10T06:31:31;10.48;;;9.38;;
30010;SDS011;16851;53.564;8.112;2023-05-10T06:36:35;9.95;;;8.95;;
30010;SDS011;16851;53.564;8.112;2023-05-10T06:41:39;9.50;;;7.75;;
30010;SDS011;16851;53.564;8.112;2023-05-10T06:46:41;8.05;;;7.25;;
30010;SDS011;16851;53.564;8.112;2023-05-10T06:51:43;8.25;;;7.40;;
30010;SDS011;16851;53.564;8.112;2023-05-10T06:56:48;7.68;;;6.88;;
30010;SDS011;16851;53.564;8.112;2023-05-10T07:01:50;7.70;;;6.25;;
30010;SDS011;16851;53.564;8.112;2023-05-10T07:06:57;7.22;;;6.53;;
30010;SDS011;16851;53.564;8.112;2023-05-10T07:12:02;7.32;;;6.63;;
30010;SDS011;16851;53.564;8.112;2023-05-10T07:17:03;6.38;;;5.78;;
30010;SDS011;16851;53.564;8.112;2023-05-10T07:22:08;6.47;;;5.78;;
30010;SDS011;16851;53.564;8.112;2023-05-10T07:27:12;6.10;;;5.47;;
30010;SDS011;16851;53.564;8.112;2023-05-10T07:32:14;5.68;;;5.03;;
30010;SDS011;16851;53.564;8.112;2023-05-10T07:37:23;6.95;;;4.32;;
30010;SDS011;16851;53.564;8.112;2023-05-10T07:42:25;5.47;;;4.47;;
30010;SDS011;16851;53.564;8.112;2023-05-10T07:47:27;7.32;;;6.63;;
30010;SDS011;16851;53.564;8.112;2023-05-10T07:52:31;8.88;;;6.82;;
30010;SDS011;16851;53.564;8.112;2023-05-10T07:57:35;9.02;;;8.13;;
30010;SDS011;16851;53.564;8.112;2023-05-10T08:02:39;9.13;;;8.15;;
30010;SDS011;16851;53.564;8.112;2023-05-10T08:07:41;8.40;;;7.60;;
30010;SDS011;16851;53.564;8.112;2023-05-10T08:12:47;9.68;;;8.60;;
30010;SDS011;16851;53.564;8.112;2023-05-10T08:17:51;10.25;;;9.07;;
30010;SDS011;16851;53.564;8.112;2023-05-10T08:22:53;8.60;;;7.65;;
30010;SDS011;16851;53.564;8.112;2023-05-10T08:27:55;9.05;;;7.50;;
30010;SDS011;16851;53.564;8.112;2023-05-10T08:33:02;8.15;;;7.35;;
30010;SDS011;16851;53.564;8.112;2023-05-10T08:38:04;7.80;;;6.95;;
30010;SDS011;16851;53.564;8.112;2023-05-10T08:43:09;8.63;;;7.20;;
30010;SDS011;16851;53.564;8.112;2023-05-10T08:48:14;8.43;;;7.20;;
30010;SDS011;16851;53.564;8.112;2023-05-10T08:53:21;8.20;;;7.40;;
30010;SDS011;16851;53.564;8.112;2023-05-10T08:58:30;8.90;;;7.95;;
30010;SDS011;16851;53.564;8.112;2023-05-10T09:03:34;7.47;;;6.72;;
30010;SDS011;16851;53.564;8.112;2023-05-10T09:08:40;7.72;;;6.93;;
30010;SDS011;16851;53.564;8.112;2023-05-10T09:13:46;9.70;;;6.93;;
30010;SDS011;16851;53.564;8.112;2023-05-10T09:18:49;8.85;;;6.75;;
30010;SDS011;16851;53.564;8.112;2023-05-10T09:23:51;7.43;;;5.78;;
30010;SDS011;16851;53.564;8.112;2023-05-10T09:28:57;6.00;;;5.38;;
30010;SDS011;16851;53.564;8.112;2023-05-10T09:33:59;8.60;;;5.40;;
30010;SDS011;16851;53.564;8.112;2023-05-10T09:39:03;4.63;;;3.40;;
30010;SDS011;16851;53.564;8.112;2023-05-10T09:44:04;5.00;;;2.72;;
30010;SDS011;16851;53.564;8.112;2023-05-10T09:49:09;3.42;;;2.55;;
30010;SDS011;16851;53.564;8.112;2023-05-10T09:54:16;5.82;;;3.00;;
30010;SDS011;16851;53.564;8.112;2023-05-10T09:59:19;2.75;;;2.40;;
30010;SDS011;16851;53.564;8.112;2023-05-10T10:04:26;3.63;;;2.83;;
30010;SDS011;16851;53.564;8.112;2023-05-10T10:09:31;2.75;;;2.55;;
30010;SDS011;16851;53.564;8.112;2023-05-10T10:14:36;2.90;;;1.85;;
30010;SDS011;16851;53.564;8.112;2023-05-10T10:19:40;1.15;;;1.00;;
30010;SDS011;16851;53.564;8.112;2023-05-10T10:24:45;1.00;;;0.90;;
30010;SDS011;16851;53.564;8.112;2023-05-10T10:29:52;1.40;;;0.90;;
30010;SDS011;16851;53.564;8.112;2023-05-10T10:35:03;3.47;;;1.30;;
30010;SDS011;16851;53.564;8.112;2023-05-10T10:40:22;1.73;;;1.20;;
30010;SDS011;16851;53.564;8.112;2023-05-10T10:45:24;2.03;;;1.40;;
30010;SDS011;16851;53.564;8.112;2023-05-10T10:50:31;2.30;;;1.10;;
30010;SDS011;16851;53.564;8.112;2023-05-10T10:55:48;1.67;;;0.90;;
30010;SDS011;16851;53.564;8.112;2023-05-10T11:01:08;2.47;;;1.85;;
30010;SDS011;16851;53.564;8.112;2023-05-10T11:06:28;4.53;;;2.50;;
30010;SDS011;16851;53.564;8.112;2023-05-10T11:11:50;4.25;;;2.70;;
30010;SDS011;16851;53.564;8.112;2023-05-10T11:16:53;3.17;;;2.80;;
30010;SDS011;16851;53.564;8.112;2023-05-10T11:27:08;3.90;;;3.50;;
30010;SDS011;16851;53.564;8.112;2023-05-10T11:32:10;4.50;;;3.45;;
30010;SDS011;16851;53.564;8.112;2023-05-10T11:37:12;4.05;;;3.28;;
30010;SDS011;16851;53.564;8.112;2023-05-10T11:42:13;10.25;;;4.88;;
30010;SDS011;16851;53.564;8.112;2023-05-10T11:47:17;7.50;;;5.40;;
30010;SDS011;16851;53.564;8.112;2023-05-10T11:52:22;5.63;;;4.20;;
30010;SDS011;16851;53.564;8.112;2023-05-10T11:57:27;4.70;;;3.85;;
30010;SDS011;16851;53.564;8.112;2023-05-10T12:02:35;3.05;;;2.70;;
30010;SDS011;16851;53.564;8.112;2023-05-10T12:07:39;3.25;;;2.80;;
30010;SDS011;16851;53.564;8.112;2023-05-10T12:12:44;3.42;;;2.72;;
30010;SDS011;16851;53.564;8.112;2023-05-10T12:17:47;2.97;;;2.00;;
30010;SDS011;16851;53.564;8.112;2023-05-10T12:22:55;2.92;;;1.85;;
30010;SDS011;16851;53.564;8.112;2023-05-10T12:28:02;2.58;;;1.60;;
30010;SDS011;16851;53.564;8.112;2023-05-10T12:33:10;2.70;;;0.95;;
30010;SDS011;16851;53.564;8.112;2023-05-10T12:43:39;1.15;;;0.80;;
30010;SDS011;16851;53.564;8.112;2023-05-10T12:48:46;1.75;;;0.80;;
30010;SDS011;16851;53.564;8.112;2023-05-10T12:54:02;3.38;;;1.00;;
30010;SDS011;16851;53.564;8.112;2023-05-10T12:59:04;1.27;;;1.00;;
30010;SDS011;16851;53.564;8.112;2023-05-10T13:04:06;3.00;;;1.80;;
30010;SDS011;16851;53.564;8.112;2023-05-10T13:09:08;3.75;;;2.70;;
30010;SDS011;16851;53.564;8.112;2023-05-10T13:14:10;3.83;;;2.63;;
30010;SDS011;16851;53.564;8.112;2023-05-10T13:19:17;3.47;;;2.50;;
30010;SDS011;16851;53.564;8.112;2023-05-10T13:24:24;4.50;;;2.63;;
30010;SDS011;16851;53.564;8.112;2023-05-10T13:29:26;4.50;;;4.10;;
30010;SDS011;16851;53.564;8.112;2023-05-10T13:34:28;6.40;;;5.80;;
30010;SDS011;16851;53.564;8.112;2023-05-10T13:39:30;7.97;;;7.18;;
30010;SDS011;16851;53.564;8.112;2023-05-10T13:44:39;9.70;;;8.90;;
30010;SDS011;16851;53.564;8.112;2023-05-10T13:49:44;10.30;;;9.40;;
30010;SDS011;16851;53.564;8.112;2023-05-10T13:54:48;10.55;;;9.55;;
30010;SDS011;16851;53.564;8.112;2023-05-10T13:59:51;11.20;;;10.20;;
30010;SDS011;16851;53.564;8.112;2023-05-10T14:05:00;10.80;;;9.70;;
30010;SDS011;16851;53.564;8.112;2023-05-10T14:10:02;9.80;;;8.80;;
30010;SDS011;16851;53.564;8.112;2023-05-10T14:15:10;9.85;;;8.85;;
30010;SDS011;16851;53.564;8.112;2023-05-10T14:20:16;8.55;;;7.75;;
30010;SDS011;16851;53.564;8.112;2023-05-10T14:25:22;8.13;;;7.43;;
30010;SDS011;16851;53.564;8.112;2023-05-10T14:30:24;7.85;;;7.15;;
30010;SDS011;16851;53.564;8.112;2023-05-10T14:35:29;7.55;;;6.85;;
30010;SDS011;16851;53.564;8.112;2023-05-10T14:40:34;5.53;;;5.03;;
30010;SDS011;16851;53.564;8.112;2023-05-10T14:45:37;5.00;;;4.15;;
30010;SDS011;16851;53.564;8.112;2023-05-10T14:50:46;3.63;;;3.00;;
30010;SDS011;16851;53.564;8.112;2023-05-10T14:55:53;3.65;;;2.35;;
30010;SDS011;16851;53.564;8.112;2023-05-10T15:01:00;2.38;;;2.13;;
30010;SDS011;16851;53.564;8.112;2023-05-10T15:06:05;1.67;;;1.40;;
30010;SDS011;16851;53.564;8.112;2023-05-10T15:11:07;1.65;;;1.40;;
30010;SDS011;16851;53.564;8.112;2023-05-10T15:16:09;2.17;;;1.77;;
30010;SDS011;16851;53.564;8.112;2023-05-10T15:21:13;2.35;;;1.90;;
30010;SDS011;16851;53.564;8.112;2023-05-10T15:26:17;2.40;;;2.20;;
30010;SDS011;16851;53.564;8.112;2023-05-10T15:31:18;4.53;;;2.72;;
30010;SDS011;16851;53.564;8.112;2023-05-10T15:36:20;2.83;;;2.42;;
30010;SDS011;16851;53.564;8.112;2023-05-10T15:41:22;4.38;;;2.92;;
30010;SDS011;16851;53.564;8.112;2023-05-10T15:46:27;4.05;;;3.20;;
30010;SDS011;16851;53.564;8.112;2023-05-10T15:51:34;6.00;;;3.35;;
30010;SDS011;16851;53.564;8.112;2023-05-10T15:56:37;8.23;;;3.65;;
30010;SDS011;16851;53.564;8.112;2023-05-10T16:01:39;5.38;;;3.80;;
30010;SDS011;16851;53.564;8.112;2023-05-10T16:06:40;5.20;;;4.00;;
30010;SDS011;16851;53.564;8.112;2023-05-10T16:11:45;7.70;;;5.07;;
30010;SDS011;16851;53.564;8.112;2023-05-10T16:16:46;9.65;;;5.30;;
30010;SDS011;16851;53.564;8.112;2023-05-10T16:21:51;8.52;;;5.45;;
30010;SDS011;16851;53.564;8.112;2023-05-10T16:26:53;8.07;;;5.35;;
30010;SDS011;16851;53.564;8.112;2023-05-10T16:31:57;6.65;;;5.35;;
30010;SDS011;16851;53.564;8.112;2023-05-10T16:36:59;7.95;;;5.72;;
30010;SDS011;16851;53.564;8.112;2023-05-10T16:42:03;9.60;;;5.95;;
30010;SDS011;16851;53.564;8.112;2023-05-10T16:47:07;7.45;;;5.30;;
30010;SDS011;16851;53.564;8.112;2023-05-10T16:52:12;7.57;;;6.15;;
30010;SDS011;16851;53.564;8.112;2023-05-10T16:57:16;8.18;;;6.43;;
30010;SDS011;16851;53.564;8.112;2023-05-10T17:02:20;9.88;;;6.20;;
30010;SDS011;16851;53.564;8.112;2023-05-10T17:07:24;11.02;;;7.75;;
30010;SDS011;16851;53.564;8.112;2023-05-10T17:12:26;13.60;;;8.35;;
30010;SDS011;16851;53.564;8.112;2023-05-10T17:17:32;9.45;;;8.43;;
30010;SDS011;16851;53.564;8.112;2023-05-10T17:22:34;12.05;;;8.63;;
30010;SDS011;16851;53.564;8.112;2023-05-10T17:27:38;11.90;;;9.15;;
30010;SDS011;16851;53.564;8.112;2023-05-10T17:32:40;13.40;;;10.73;;
30010;SDS011;16851;53.564;8.112;2023-05-10T17:37:47;16.27;;;10.90;;
30010;SDS011;16851;53.564;8.112;2023-05-10T17:42:54;13.52;;;10.20;;
30010;SDS011;16851;53.564;8.112;2023-05-10T17:47:58;13.20;;;10.50;;
30010;SDS011;16851;53.564;8.112;2023-05-10T17:53:00;11.93;;;10.02;;
30010;SDS011;16851;53.564;8.112;2023-05-10T17:58:03;15.77;;;10.38;;
30010;SDS011;16851;53.564;8.112;2023-05-10T18:03:07;13.68;;;10.85;;
30010;SDS011;16851;53.564;8.112;2023-05-10T18:08:09;11.43;;;10.13;;
30010;SDS011;16851;53.564;8.112;2023-05-10T18:13:13;16.27;;;9.20;;
30010;SDS011;16851;53.564;8.112;2023-05-10T18:18:17;16.52;;;10.05;;
30010;SDS011;16851;53.564;8.112;2023-05-10T18:23:19;12.05;;;10.15;;
30010;SDS011;16851;53.564;8.112;2023-05-10T18:28:23;17.25;;;10.35;;
30010;SDS011;16851;53.564;8.112;2023-05-10T18:33:31;13.55;;;10.20;;
30010;SDS011;16851;53.564;8.112;2023-05-10T18:38:35;13.02;;;10.38;;
30010;SDS011;16851;53.564;8.112;2023-05-10T18:43:39;14.80;;;10.60;;
30010;SDS011;16851;53.564;8.112;2023-05-10T18:48:45;13.57;;;9.98;;
30010;SDS011;16851;53.564;8.112;2023-05-10T18:53:47;17.42;;;11.10;;
30010;SDS011;16851;53.564;8.112;2023-05-10T18:58:49;15.32;;;12.73;;
30010;SDS011;16851;53.564;8.112;2023-05-10T19:03:53;17.83;;;12.88;;
30010;SDS011;16851;53.564;8.112;2023-05-10T19:08:55;15.30;;;12.70;;
30010;SDS011;16851;53.564;8.112;2023-05-10T19:14:01;16.00;;;11.95;;
30010;SDS011;16851;53.564;8.112;2023-05-10T19:19:06;20.17;;;13.63;;
30010;SDS011;16851;53.564;8.112;2023-05-10T19:24:09;25.40;;;15.55;;
30010;SDS011;16851;53.564;8.112;2023-05-10T19:29:13;19.13;;;13.57;;
30010;SDS011;16851;53.564;8.112;2023-05-10T19:34:20;15.02;;;11.43;;
30010;SDS011;16851;53.564;8.112;2023-05-10T19:39:24;19.38;;;13.10;;
30010;SDS011;16851;53.564;8.112;2023-05-10T19:44:27;33.55;;;11.52;;
30010;SDS011;16851;53.564;8.112;2023-05-10T19:49:31;29.48;;;17.98;;
30010;SDS011;16851;53.564;8.112;2023-05-10T19:54:35;22.63;;;15.40;;
30010;SDS011;16851;53.564;8.112;2023-05-10T19:59:38;31.40;;;17.33;;
30010;SDS011;16851;53.564;8.112;2023-05-10T20:04:40;31.25;;;17.20;;
30010;SDS011;16851;53.564;8.112;2023-05-10T20:09:42;32.83;;;17.15;;
30010;SDS011;16851;53.564;8.112;2023-05-10T20:14:46;26.23;;;16.17;;
30010;SDS011;16851;53.564;8.112;2023-05-10T20:19:50;29.98;;;18.75;;
30010;SDS011;16851;53.564;8.112;2023-05-10T20:24:52;24.23;;;17.02;;
30010;SDS011;16851;53.564;8.112;2023-05-10T20:29:57;33.30;;;21.20;;
30010;SDS011;16851;53.564;8.112;2023-05-10T20:34:59;38.00;;;21.80;;
30010;SDS011;16851;53.564;8.112;2023-05-10T20:40:02;36.88;;;22.98;;
30010;SDS011;16851;53.564;8.112;2023-05-10T20:45:04;31.13;;;21.38;;
30010;SDS011;16851;53.564;8.112;2023-05-10T20:50:09;30.23;;;20.40;;
30010;SDS011;16851;53.564;8.112;2023-05-10T20:55:16;29.38;;;20.15;;
30010;SDS011;16851;53.564;8.112;2023-05-10T21:00:18;23.00;;;15.70;;
30010;SDS011;16851;53.564;8.112;2023-05-10T21:05:25;21.63;;;16.27;;
30010;SDS011;16851;53.564;8.112;2023-05-10T21:10:27;18.40;;;14.77;;
30010;SDS011;16851;53.564;8.112;2023-05-10T21:15:34;18.38;;;13.45;;
30010;SDS011;16851;53.564;8.112;2023-05-10T21:20:38;17.05;;;14.07;;
30010;SDS011;16851;53.564;8.112;2023-05-10T21:25:42;25.80;;;12.77;;
30010;SDS011;16851;53.564;8.112;2023-05-10T21:30:45;14.98;;;11.95;;
30010;SDS011;16851;53.564;8.112;2023-05-10T21:35:51;18.67;;;14.18;;
30010;SDS011;16851;53.564;8.112;2023-05-10T21:40:53;13.07;;;11.35;;
30010;SDS011;16851;53.564;8.112;2023-05-10T21:45:54;24.70;;;13.70;;
30010;SDS011;16851;53.564;8.112;2023-05-10T21:50:56;16.45;;;12.10;;
30010;SDS011;16851;53.564;8.112;2023-05-10T21:55:59;18.67;;;10.05;;
30010;SDS011;16851;53.564;8.112;2023-05-10T22:01:03;14.63;;;9.43;;
30010;SDS011;16851;53.564;8.112;2023-05-10T22:06:04;51.15;;;10.55;;
30010;SDS011;16851;53.564;8.112;2023-05-10T22:11:06;19.95;;;9.80;;
30010;SDS011;16851;53.564;8.112;2023-05-10T22:16:08;39.42;;;10.60;;
30010;SDS011;16851;53.564;8.112;2023-05-10T22:21:10;52.47;;;10.77;;
30010;SDS011;16851;53.564;8.112;2023-05-10T22:26:16;88.72;;;9.80;;
30010;SDS011;16851;53.564;8.112;2023-05-10T22:31:20;35.28;;;9.25;;
30010;SDS011;16851;53.564;8.112;2023-05-10T22:36:29;17.20;;;8.55;;
30010;SDS011;16851;53.564;8.112;2023-05-10T22:41:33;26.80;;;8.95;;
30010;SDS011;16851;53.564;8.112;2023-05-10T22:46:37;115.82;;;10.13;;
30010;SDS011;16851;53.564;8.112;2023-05-10T22:51:41;41.38;;;8.13;;
30010;SDS011;16851;53.564;8.112;2023-05-10T22:56:43;77.85;;;8.55;;
30010;SDS011;16851;53.564;8.112;2023-05-10T23:01:45;19.42;;;7.55;;
30010;SDS011;16851;53.564;8.112;2023-05-10T23:06:49;20.02;;;7.70;;
30010;SDS011;16851;53.564;8.112;2023-05-10T23:11:53;15.88;;;6.95;;
30010;SDS011;16851;53.564;8.112;2023-05-10T23:16:57;11.82;;;6.40;;
30010;SDS011;16851;53.564;8.112;2023-05-10T23:22:02;18.85;;;6.65;;
30010;SDS011;16851;53.564;8.112;2023-05-10T23:27:06;52.05;;;7.80;;
30010;SDS011;16851;53.564;8.112;2023-05-10T23:32:08;33.78;;;6.95;;
30010;SDS011;16851;53.564;8.112;2023-05-10T23:37:09;56.95;;;8.13;;
30010;SDS011;16851;53.564;8.112;2023-05-10T23:42:11;35.42;;;8.15;;
30010;SDS011;16851;53.564;8.112;2023-05-10T23:47:13;65.22;;;9.30;;
30010;SDS011;16851;53.564;8.112;2023-05-10T23:52:18;71.00;;;10.00;;
30010;SDS011;16851;53.564;8.112;2023-05-10T23:57:25;15.13;;;7.50;;
